createdAt,value
2018-09-30T00:00:27.893Z,1015.23
2018-09-30T00:01:27.883Z,1015.22
2018-09-30T00:02:27.874Z,1015.22
2018-09-30T00:03:27.868Z,1015.22
2018-09-30T00:04:27.862Z,1015.19
2018-09-30T00:05:27.850Z,1015.18
2018-09-30T00:06:27.851Z,1015.17
2018-09-30T00:07:27.838Z,1015.12
2018-09-30T00:08:27.830Z,1015.11
2018-09-30T00:09:27.819Z,1015.10
2018-09-30T00:10:27.809Z,1015.09
2018-09-30T00:11:27.803Z,1015.10
2018-09-30T00:12:27.797Z,1015.10
2018-09-30T00:13:27.792Z,1015.06
2018-09-30T00:14:27.780Z,1015.03
2018-09-30T00:15:27.776Z,1014.99
2018-09-30T00:16:27.762Z,1014.97
2018-09-30T00:17:27.753Z,1014.96
2018-09-30T00:18:27.748Z,1014.95
2018-09-30T00:19:27.785Z,1014.94
2018-09-30T00:20:27.734Z,1014.90
2018-09-30T00:21:27.727Z,1014.91
2018-09-30T00:22:27.719Z,1014.90
2018-09-30T00:23:27.710Z,1014.84
2018-09-30T00:24:27.700Z,1014.87
2018-09-30T00:25:27.691Z,1014.87
2018-09-30T00:26:27.686Z,1014.84
2018-09-30T00:27:27.682Z,1014.84
2018-09-30T00:28:27.670Z,1014.83
2018-09-30T00:29:27.663Z,1014.82
2018-09-30T00:30:27.653Z,1014.80
2018-09-30T00:31:27.642Z,1014.76
2018-09-30T00:32:27.634Z,1014.72
2018-09-30T00:33:27.624Z,1014.74
2018-09-30T00:34:27.622Z,1014.69
2018-09-30T00:35:27.617Z,1014.67
2018-09-30T00:36:27.666Z,1014.66
2018-09-30T00:37:27.590Z,1014.67
2018-09-30T00:38:27.583Z,1014.65
2018-09-30T00:39:27.576Z,1014.66
2018-09-30T00:40:27.569Z,1014.63
2018-09-30T00:41:27.565Z,1014.64
2018-09-30T00:42:27.556Z,1014.64
2018-09-30T00:43:27.544Z,1014.60
2018-09-30T00:44:27.537Z,1014.58
2018-09-30T00:45:27.533Z,1014.59
2018-09-30T00:46:27.517Z,1014.59
2018-09-30T00:47:27.511Z,1014.57
2018-09-30T00:48:27.502Z,1014.57
2018-09-30T00:49:27.501Z,1014.56
2018-09-30T00:50:27.490Z,1014.53
2018-09-30T00:51:27.481Z,1014.53
2018-09-30T00:52:27.469Z,1014.51
2018-09-30T00:53:27.459Z,1014.52
2018-09-30T00:54:27.453Z,1014.49
2018-09-30T00:55:27.448Z,1014.47
2018-09-30T00:56:27.443Z,1014.48
2018-09-30T00:57:27.431Z,1014.46
2018-09-30T00:58:27.421Z,1014.43
2018-09-30T00:59:27.411Z,1014.41
2018-09-30T01:00:27.402Z,1014.43
2018-09-30T01:01:27.393Z,1014.37
2018-09-30T01:02:27.393Z,1014.35
2018-09-30T01:03:27.383Z,1014.31
2018-09-30T01:04:27.377Z,1014.30
2018-09-30T01:05:27.366Z,1014.28
2018-09-30T01:06:27.356Z,1014.25
2018-09-30T01:07:27.346Z,1014.22
2018-09-30T01:08:27.337Z,1014.20
2018-09-30T01:09:27.327Z,1014.22
2018-09-30T01:10:27.319Z,1014.15
2018-09-30T01:11:27.317Z,1014.13
2018-09-30T01:12:27.303Z,1014.08
2018-09-30T01:13:27.296Z,1014.05
2018-09-30T01:14:27.287Z,1014.06
2018-09-30T01:15:27.287Z,1014.05
2018-09-30T01:16:27.274Z,1014.04
2018-09-30T01:17:27.264Z,1014.00
2018-09-30T01:18:27.256Z,1013.96
2018-09-30T01:19:27.246Z,1013.99
2018-09-30T01:20:27.241Z,1013.95
2018-09-30T01:21:27.228Z,1013.92
2018-09-30T01:22:27.222Z,1013.94
2018-09-30T01:23:27.214Z,1013.92
2018-09-30T01:24:27.213Z,1013.94
2018-09-30T01:25:27.199Z,1013.93
2018-09-30T01:26:27.192Z,1013.89
2018-09-30T01:27:27.183Z,1013.89
2018-09-30T01:28:27.168Z,1013.85
2018-09-30T01:29:27.163Z,1013.79
2018-09-30T01:30:27.154Z,1013.80
2018-09-30T01:31:27.144Z,1013.77
2018-09-30T01:32:27.140Z,1013.78
2018-09-30T01:33:27.133Z,1013.74
2018-09-30T01:34:27.119Z,1013.71
2018-09-30T01:35:27.112Z,1013.65
2018-09-30T01:36:27.102Z,1013.66
2018-09-30T01:37:27.095Z,1013.63
2018-09-30T01:38:27.085Z,1013.63
2018-09-30T01:39:27.083Z,1013.64
2018-09-30T01:40:27.074Z,1013.63
2018-09-30T01:41:27.063Z,1013.63
2018-09-30T01:42:27.052Z,1013.62
2018-09-30T01:43:27.047Z,1013.59
2018-09-30T01:44:27.040Z,1013.58
2018-09-30T01:45:27.027Z,1013.54
2018-09-30T01:46:27.019Z,1013.54
2018-09-30T01:47:27.016Z,1013.54
2018-09-30T01:48:27.004Z,1013.52
2018-09-30T01:49:26.994Z,1013.50
2018-09-30T01:50:26.982Z,1013.45
2018-09-30T01:51:26.980Z,1013.50
2018-09-30T01:52:26.965Z,1013.48
2018-09-30T01:53:26.959Z,1013.45
2018-09-30T01:54:26.954Z,1013.47
2018-09-30T01:55:26.946Z,1013.48
2018-09-30T01:56:26.935Z,1013.46
2018-09-30T01:57:26.925Z,1013.43
2018-09-30T01:58:26.914Z,1013.46
2018-09-30T01:59:26.905Z,1013.40
2018-09-30T02:00:26.899Z,1013.39
2018-09-30T02:01:26.894Z,1013.39
2018-09-30T02:02:26.883Z,1013.39
2018-09-30T02:03:26.876Z,1013.38
2018-09-30T02:04:26.867Z,1013.39
2018-09-30T02:05:26.850Z,1013.37
2018-09-30T02:06:26.845Z,1013.39
2018-09-30T02:07:26.840Z,1013.37
2018-09-30T02:08:26.830Z,1013.36
2018-09-30T02:09:26.818Z,1013.36
2018-09-30T02:10:26.814Z,1013.38
2018-09-30T02:11:26.801Z,1013.35
2018-09-30T02:12:26.794Z,1013.34
2018-09-30T02:13:26.788Z,1013.35
2018-09-30T02:14:26.779Z,1013.33
2018-09-30T02:15:26.770Z,1013.35
2018-09-30T02:16:26.761Z,1013.30
2018-09-30T02:17:26.753Z,1013.28
2018-09-30T02:18:26.748Z,1013.26
2018-09-30T02:19:26.733Z,1013.27
2018-09-30T02:20:26.727Z,1013.30
2018-09-30T02:21:26.716Z,1013.27
2018-09-30T02:22:26.709Z,1013.27
2018-09-30T02:23:26.701Z,1013.25
2018-09-30T02:24:26.693Z,1013.21
2018-09-30T02:25:26.680Z,1013.22
2018-09-30T02:26:26.671Z,1013.23
2018-09-30T02:27:26.667Z,1013.22
2018-09-30T02:28:26.659Z,1013.22
2018-09-30T02:29:26.650Z,1013.20
2018-09-30T02:30:26.639Z,1013.24
2018-09-30T02:31:26.634Z,1013.20
2018-09-30T02:32:26.625Z,1013.20
2018-09-30T02:33:26.613Z,1013.15
2018-09-30T02:34:26.606Z,1013.14
2018-09-30T02:35:26.593Z,1013.14
2018-09-30T02:36:26.591Z,1013.09
2018-09-30T02:37:26.585Z,1013.07
2018-09-30T02:38:26.572Z,1013.06
2018-09-30T02:39:26.560Z,1013.02
2018-09-30T02:40:26.550Z,1013.02
2018-09-30T02:41:26.551Z,1012.98
2018-09-30T02:42:26.534Z,1012.97
2018-09-30T02:43:26.534Z,1012.95
2018-09-30T02:44:26.519Z,1012.91
2018-09-30T02:45:26.510Z,1012.88
2018-09-30T02:46:26.502Z,1012.82
2018-09-30T02:47:26.493Z,1012.81
2018-09-30T02:48:26.485Z,1012.81
2018-09-30T02:49:26.474Z,1012.83
2018-09-30T02:50:26.469Z,1012.80
2018-09-30T02:51:26.460Z,1012.82
2018-09-30T02:52:26.451Z,1012.82
2018-09-30T02:53:26.440Z,1012.78
2018-09-30T02:54:26.433Z,1012.78
2018-09-30T02:55:26.424Z,1012.76
2018-09-30T02:56:26.414Z,1012.80
2018-09-30T02:57:26.406Z,1012.77
2018-09-30T02:58:26.400Z,1012.80
2018-09-30T02:59:26.393Z,1012.77
2018-09-30T03:00:26.378Z,1012.77
2018-09-30T03:01:26.369Z,1012.78
2018-09-30T03:02:26.359Z,1012.76
2018-09-30T03:03:26.350Z,1012.73
2018-09-30T03:04:26.345Z,1012.75
2018-09-30T03:05:26.330Z,1012.74
2018-09-30T03:06:26.330Z,1012.76
2018-09-30T03:07:26.317Z,1012.71
2018-09-30T03:08:26.305Z,1012.71
2018-09-30T03:09:26.301Z,1012.75
2018-09-30T03:10:26.286Z,1012.75
2018-09-30T03:11:26.280Z,1012.75
2018-09-30T03:12:26.275Z,1012.77
2018-09-30T03:13:26.264Z,1012.75
2018-09-30T03:14:26.257Z,1012.78
2018-09-30T03:15:26.247Z,1012.84
2018-09-30T03:16:26.237Z,1012.81
2018-09-30T03:17:26.224Z,1012.82
2018-09-30T03:18:26.217Z,1012.81
2018-09-30T03:19:26.216Z,1012.81
2018-09-30T03:20:26.205Z,1012.77
2018-09-30T03:21:26.195Z,1012.75
2018-09-30T03:22:26.186Z,1012.78
2018-09-30T03:23:26.173Z,1012.76
2018-09-30T03:24:26.166Z,1012.75
2018-09-30T03:25:26.156Z,1012.71
2018-09-30T03:26:26.155Z,1012.68
2018-09-30T03:27:26.143Z,1012.64
2018-09-30T03:28:26.135Z,1012.66
2018-09-30T03:29:26.186Z,1012.63
2018-09-30T03:30:26.113Z,1012.63
2018-09-30T03:31:26.107Z,1012.65
2018-09-30T03:32:26.098Z,1012.66
2018-09-30T03:33:26.086Z,1012.62
2018-09-30T03:34:26.080Z,1012.69
2018-09-30T03:35:26.078Z,1012.62
2018-09-30T03:36:26.065Z,1012.58
2018-09-30T03:37:26.054Z,1012.56
2018-09-30T03:38:26.042Z,1012.55
2018-09-30T03:39:26.153Z,1012.53
2018-09-30T03:41:01.809Z,1012.56
2018-09-30T03:41:26.017Z,1012.55
2018-09-30T03:42:26.014Z,1012.53
2018-09-30T03:43:25.997Z,1012.53
2018-09-30T03:44:25.991Z,1012.57
2018-09-30T03:45:25.982Z,1012.55
2018-09-30T03:46:25.971Z,1012.51
2018-09-30T03:47:25.970Z,1012.50
2018-09-30T03:48:25.958Z,1012.48
2018-09-30T03:49:25.948Z,1012.48
2018-09-30T03:50:25.944Z,1012.47
2018-09-30T03:51:25.925Z,1012.46
2018-09-30T03:52:25.921Z,1012.44
2018-09-30T03:53:25.909Z,1012.47
2018-09-30T03:54:25.903Z,1012.47
2018-09-30T03:55:25.901Z,1012.46
2018-09-30T03:56:25.900Z,1012.44
2018-09-30T03:57:25.880Z,1012.42
2018-09-30T03:58:25.898Z,1012.41
2018-09-30T03:59:25.865Z,1012.39
2018-09-30T04:00:25.850Z,1012.38
2018-09-30T04:01:25.840Z,1012.37
2018-09-30T04:02:25.836Z,1012.37
2018-09-30T04:03:25.823Z,1012.36
2018-09-30T04:04:25.815Z,1012.35
2018-09-30T04:05:25.808Z,1012.30
2018-09-30T04:06:25.793Z,1012.28
2018-09-30T04:07:25.785Z,1012.25
2018-09-30T04:08:25.778Z,1012.23
2018-09-30T04:09:25.836Z,1012.22
2018-09-30T04:10:25.764Z,1012.24
2018-09-30T04:11:25.753Z,1012.22
2018-09-30T04:12:25.746Z,1012.24
2018-09-30T04:13:25.731Z,1012.22
2018-09-30T04:14:25.723Z,1012.20
2018-09-30T04:15:25.715Z,1012.25
2018-09-30T04:16:25.708Z,1012.20
2018-09-30T04:17:25.729Z,1012.23
2018-09-30T04:18:25.691Z,1012.22
2018-09-30T04:19:25.684Z,1012.17
2018-09-30T04:20:25.676Z,1012.21
2018-09-30T04:21:25.661Z,1012.21
2018-09-30T04:22:25.653Z,1012.23
2018-09-30T04:23:25.645Z,1012.22
2018-09-30T04:24:25.638Z,1012.21
2018-09-30T04:25:25.629Z,1012.19
2018-09-30T04:26:25.619Z,1012.19
2018-09-30T04:27:25.608Z,1012.18
2018-09-30T04:28:25.598Z,1012.16
2018-09-30T04:29:25.593Z,1012.15
2018-09-30T04:30:25.584Z,1012.13
2018-09-30T04:31:25.580Z,1012.17
2018-09-30T04:32:25.568Z,1012.14
2018-09-30T04:33:25.662Z,1012.16
2018-09-30T04:34:25.553Z,1012.17
2018-09-30T04:35:25.536Z,1012.15
2018-09-30T04:36:25.529Z,1012.15
2018-09-30T04:37:25.518Z,1012.18
2018-09-30T04:38:25.512Z,1012.19
2018-09-30T04:39:25.505Z,1012.19
2018-09-30T04:40:25.496Z,1012.22
2018-09-30T04:41:25.488Z,1012.25
2018-09-30T04:42:25.475Z,1012.28
2018-09-30T04:43:25.467Z,1012.25
2018-09-30T04:44:25.456Z,1012.26
2018-09-30T04:45:25.450Z,1012.30
2018-09-30T04:46:25.443Z,1012.30
2018-09-30T04:47:25.436Z,1012.30
2018-09-30T04:48:25.433Z,1012.30
2018-09-30T04:49:25.413Z,1012.30
2018-09-30T04:50:25.401Z,1012.31
2018-09-30T04:51:25.394Z,1012.32
2018-09-30T04:52:25.385Z,1012.30
2018-09-30T04:53:25.378Z,1012.33
2018-09-30T04:54:25.374Z,1012.33
2018-09-30T04:55:25.363Z,1012.31
2018-09-30T04:56:25.350Z,1012.29
2018-09-30T04:57:25.338Z,1012.26
2018-09-30T04:58:25.329Z,1012.25
2018-09-30T04:59:25.324Z,1012.26
2018-09-30T05:00:25.314Z,1012.26
2018-09-30T05:01:25.309Z,1012.24
2018-09-30T05:02:25.297Z,1012.20
2018-09-30T05:03:25.286Z,1012.22
2018-09-30T05:04:25.276Z,1012.21
2018-09-30T05:05:25.269Z,1012.20
2018-09-30T05:06:25.258Z,1012.25
2018-09-30T05:07:25.256Z,1012.23
2018-09-30T05:08:25.245Z,1012.25
2018-09-30T05:09:25.258Z,1012.24
2018-09-30T05:10:25.222Z,1012.21
2018-09-30T05:11:25.217Z,1012.19
2018-09-30T05:12:25.205Z,1012.19
2018-09-30T05:13:25.198Z,1012.17
2018-09-30T05:14:25.186Z,1012.16
2018-09-30T05:15:25.180Z,1012.13
2018-09-30T05:16:25.180Z,1012.13
2018-09-30T05:17:25.161Z,1012.14
2018-09-30T05:18:25.148Z,1012.18
2018-09-30T05:19:25.142Z,1012.15
2018-09-30T05:20:25.138Z,1012.19
2018-09-30T05:21:25.126Z,1012.12
2018-09-30T05:22:25.117Z,1012.16
2018-09-30T05:23:25.106Z,1012.12
2018-09-30T05:24:25.094Z,1012.10
2018-09-30T05:25:25.086Z,1012.13
2018-09-30T05:26:25.076Z,1012.11
2018-09-30T05:27:25.066Z,1012.12
2018-09-30T05:28:25.063Z,1012.11
2018-09-30T05:29:25.051Z,1012.07
2018-09-30T05:30:25.045Z,1012.09
2018-09-30T05:31:25.034Z,1012.10
2018-09-30T05:32:25.023Z,1012.07
2018-09-30T05:33:25.013Z,1012.04
2018-09-30T05:34:25.005Z,1012.08
2018-09-30T05:35:24.994Z,1012.05
2018-09-30T05:36:24.990Z,1012.06
2018-09-30T05:37:24.981Z,1012.05
2018-09-30T05:38:24.969Z,1012.08
2018-09-30T05:39:24.957Z,1012.03
2018-09-30T05:40:24.954Z,1012.01
2018-09-30T05:41:24.938Z,1012.03
2018-09-30T05:42:24.948Z,1012.04
2018-09-30T05:43:24.929Z,1012.02
2018-09-30T05:44:24.931Z,1012.02
2018-09-30T05:45:24.907Z,1012.02
2018-09-30T05:46:24.890Z,1012.03
2018-09-30T05:47:24.884Z,1012.07
2018-09-30T05:48:24.876Z,1012.07
2018-09-30T05:49:24.865Z,1012.04
2018-09-30T05:50:24.859Z,1012.02
2018-09-30T05:51:24.854Z,1012.06
2018-09-30T05:52:24.844Z,1012.03
2018-09-30T05:53:24.831Z,1012.06
2018-09-30T05:54:24.820Z,1012.02
2018-09-30T05:55:24.813Z,1012.04
2018-09-30T05:56:24.840Z,1012.02
2018-09-30T05:57:24.868Z,1012.01
2018-09-30T05:58:24.787Z,1012.05
2018-09-30T05:59:24.779Z,1012.03
2018-09-30T06:00:24.770Z,1012.01
2018-09-30T06:01:24.755Z,1012.03
2018-09-30T06:02:24.746Z,1012.04
2018-09-30T06:03:24.739Z,1012.03
2018-09-30T06:04:24.737Z,1012.02
2018-09-30T06:05:24.724Z,1012.00
2018-09-30T06:06:24.711Z,1012.02
2018-09-30T06:07:24.704Z,1012.01
2018-09-30T06:08:24.693Z,1012.03
2018-09-30T06:09:24.702Z,1012.01
2018-09-30T06:10:24.671Z,1012.04
2018-09-30T06:11:24.666Z,1012.01
2018-09-30T06:12:24.665Z,1011.98
2018-09-30T06:13:24.647Z,1012.01
2018-09-30T06:14:24.636Z,1012.01
2018-09-30T06:15:24.629Z,1011.99
2018-09-30T06:16:24.619Z,1011.97
2018-09-30T06:17:24.608Z,1011.94
2018-09-30T06:18:24.605Z,1011.97
2018-09-30T06:19:24.599Z,1012.02
2018-09-30T06:20:24.585Z,1012.03
2018-09-30T06:21:24.580Z,1012.04
2018-09-30T06:22:24.563Z,1012.04
2018-09-30T06:23:24.553Z,1012.03
2018-09-30T06:24:24.545Z,1012.07
2018-09-30T06:25:24.540Z,1012.07
2018-09-30T06:26:24.531Z,1012.08
2018-09-30T06:27:24.526Z,1012.07
2018-09-30T06:28:24.512Z,1012.05
2018-09-30T06:29:24.498Z,1012.06
2018-09-30T06:30:24.489Z,1012.07
2018-09-30T06:31:24.488Z,1012.09
2018-09-30T06:32:24.477Z,1012.07
2018-09-30T06:33:24.466Z,1012.12
2018-09-30T06:34:24.456Z,1012.14
2018-09-30T06:35:24.446Z,1012.13
2018-09-30T06:36:24.438Z,1012.11
2018-09-30T06:37:24.425Z,1012.10
2018-09-30T06:38:24.416Z,1012.13
2018-09-30T06:39:24.411Z,1012.09
2018-09-30T06:40:24.440Z,1012.07
2018-09-30T06:41:24.390Z,1012.13
2018-09-30T06:42:24.386Z,1012.10
2018-09-30T06:43:24.387Z,1012.12
2018-09-30T06:44:24.366Z,1012.11
2018-09-30T06:45:24.378Z,1012.10
2018-09-30T06:46:24.344Z,1012.13
2018-09-30T06:47:24.339Z,1012.14
2018-09-30T06:48:24.330Z,1012.12
2018-09-30T06:49:24.320Z,1012.12
2018-09-30T06:50:24.312Z,1012.15
2018-09-30T06:51:24.301Z,1012.13
2018-09-30T06:52:24.292Z,1012.13
2018-09-30T06:53:24.281Z,1012.10
2018-09-30T06:54:24.272Z,1012.11
2018-09-30T06:55:24.267Z,1012.17
2018-09-30T06:56:24.258Z,1012.13
2018-09-30T06:57:24.244Z,1012.14
2018-09-30T06:58:24.238Z,1012.11
2018-09-30T06:59:24.227Z,1012.11
2018-09-30T07:00:24.220Z,1012.10
2018-09-30T07:01:24.209Z,1012.12
2018-09-30T07:02:24.226Z,1012.11
2018-09-30T07:03:24.227Z,1012.11
2018-09-30T07:04:24.185Z,1012.09
2018-09-30T07:05:24.176Z,1012.12
2018-09-30T07:06:24.166Z,1012.10
2018-09-30T07:07:24.160Z,1012.10
2018-09-30T07:08:24.146Z,1012.11
2018-09-30T07:09:24.139Z,1012.07
2018-09-30T07:10:24.134Z,1012.10
2018-09-30T07:11:24.126Z,1012.10
2018-09-30T07:12:24.110Z,1012.09
2018-09-30T07:13:24.105Z,1012.09
2018-09-30T07:14:24.094Z,1012.09
2018-09-30T07:15:24.085Z,1012.09
2018-09-30T07:16:24.082Z,1012.09
2018-09-30T07:17:24.079Z,1012.11
2018-09-30T07:18:24.062Z,1012.12
2018-09-30T07:19:24.051Z,1012.12
2018-09-30T07:20:24.041Z,1012.10
2018-09-30T07:21:24.035Z,1012.05
2018-09-30T07:22:24.070Z,1012.04
2018-09-30T07:23:24.020Z,1012.01
2018-09-30T07:24:24.004Z,1012.01
2018-09-30T07:25:23.997Z,1012.03
2018-09-30T07:26:23.985Z,1011.97
2018-09-30T07:27:23.979Z,1012.00
2018-09-30T07:28:23.973Z,1012.04
2018-09-30T07:29:23.966Z,1012.02
2018-09-30T07:30:23.956Z,1011.99
2018-09-30T07:31:23.949Z,1012.04
2018-09-30T07:32:23.941Z,1012.03
2018-09-30T07:33:23.934Z,1012.00
2018-09-30T07:34:23.919Z,1012.01
2018-09-30T07:35:23.911Z,1012.00
2018-09-30T07:36:23.906Z,1012.01
2018-09-30T07:37:23.895Z,1011.97
2018-09-30T07:38:23.884Z,1012.05
2018-09-30T07:39:23.925Z,1012.02
2018-09-30T07:40:23.869Z,1012.07
2018-09-30T07:41:23.859Z,1012.09
2018-09-30T07:42:23.853Z,1012.07
2018-09-30T07:43:23.845Z,1012.07
2018-09-30T07:44:23.837Z,1012.08
2018-09-30T07:45:23.831Z,1012.10
2018-09-30T07:46:23.824Z,1012.16
2018-09-30T07:47:23.812Z,1012.18
2018-09-30T07:48:23.801Z,1012.17
2018-09-30T07:49:23.790Z,1012.19
2018-09-30T07:50:23.787Z,1012.20
2018-09-30T07:51:23.775Z,1012.20
2018-09-30T07:52:23.795Z,1012.20
2018-09-30T07:53:23.763Z,1012.20
2018-09-30T07:54:23.753Z,1012.16
2018-09-30T07:55:23.743Z,1012.15
2018-09-30T07:56:23.733Z,1012.16
2018-09-30T07:57:23.722Z,1012.16
2018-09-30T07:58:23.712Z,1012.14
2018-09-30T07:59:23.709Z,1012.14
2018-09-30T08:00:23.706Z,1012.13
2018-09-30T08:01:23.692Z,1012.11
2018-09-30T08:02:23.690Z,1012.08
2018-09-30T08:03:23.678Z,1012.03
2018-09-30T08:04:23.665Z,1012.04
2018-09-30T08:05:23.656Z,1012.01
2018-09-30T08:06:23.721Z,1011.99
2018-09-30T08:07:23.641Z,1012.00
2018-09-30T08:08:23.633Z,1011.99
2018-09-30T08:09:23.662Z,1012.00
2018-09-30T08:10:23.614Z,1012.04
2018-09-30T08:11:23.607Z,1012.02
2018-09-30T08:12:23.607Z,1012.00
2018-09-30T08:13:23.593Z,1011.97
2018-09-30T08:14:23.585Z,1011.97
2018-09-30T08:15:23.579Z,1011.98
2018-09-30T08:16:23.574Z,1011.95
2018-09-30T08:17:23.556Z,1011.97
2018-09-30T08:18:23.558Z,1011.93
2018-09-30T08:19:23.540Z,1011.89
2018-09-30T08:20:23.539Z,1011.84
2018-09-30T08:21:23.528Z,1011.85
2018-09-30T08:22:23.518Z,1011.87
2018-09-30T08:23:23.519Z,1011.86
2018-09-30T08:24:23.541Z,1011.90
2018-09-30T08:25:23.495Z,1011.87
2018-09-30T08:26:23.484Z,1011.83
2018-09-30T08:27:23.478Z,1011.83
2018-09-30T08:28:23.470Z,1011.86
2018-09-30T08:29:23.465Z,1011.85
2018-09-30T08:30:23.458Z,1011.84
2018-09-30T08:31:23.447Z,1011.87
2018-09-30T08:32:23.436Z,1011.83
2018-09-30T08:33:23.432Z,1011.85
2018-09-30T08:34:23.420Z,1011.89
2018-09-30T08:35:23.414Z,1011.87
2018-09-30T08:36:23.407Z,1011.88
2018-09-30T08:37:23.400Z,1011.83
2018-09-30T08:38:23.393Z,1011.87
2018-09-30T08:39:23.382Z,1011.83
2018-09-30T08:40:23.373Z,1011.85
2018-09-30T08:41:23.366Z,1011.87
2018-09-30T08:42:23.361Z,1011.81
2018-09-30T08:43:23.352Z,1011.83
2018-09-30T08:44:23.441Z,1011.87
2018-09-30T08:45:23.337Z,1011.79
2018-09-30T08:46:23.326Z,1011.83
2018-09-30T08:47:23.360Z,1011.80
2018-09-30T08:48:23.311Z,1011.79
2018-09-30T08:49:23.382Z,1011.80
2018-09-30T08:50:23.304Z,1011.80
2018-09-30T08:51:23.293Z,1011.75
2018-09-30T08:52:23.283Z,1011.76
2018-09-30T08:53:23.276Z,1011.77
2018-09-30T08:54:23.275Z,1011.79
2018-09-30T08:55:23.270Z,1011.79
2018-09-30T08:56:23.268Z,1011.77
2018-09-30T08:57:23.258Z,1011.75
2018-09-30T08:58:23.260Z,1011.71
2018-09-30T08:59:23.246Z,1011.73
2018-09-30T09:00:23.246Z,1011.82
2018-09-30T09:01:23.244Z,1011.78
2018-09-30T09:02:23.242Z,1011.80
2018-09-30T09:03:23.239Z,1011.79
2018-09-30T09:04:23.231Z,1011.80
2018-09-30T09:05:23.233Z,1011.82
2018-09-30T09:06:23.242Z,1011.80
2018-09-30T09:07:23.229Z,1011.81
2018-09-30T09:08:23.230Z,1011.82
2018-09-30T09:09:23.227Z,1011.85
2018-09-30T09:10:23.231Z,1011.86
2018-09-30T09:11:23.226Z,1011.87
2018-09-30T09:12:23.232Z,1011.83
2018-09-30T09:13:23.223Z,1011.81
2018-09-30T09:14:23.227Z,1011.81
2018-09-30T09:15:23.243Z,1011.76
2018-09-30T09:16:23.227Z,1011.75
2018-09-30T09:17:23.231Z,1011.70
2018-09-30T09:18:23.234Z,1011.70
2018-09-30T09:19:23.232Z,1011.71
2018-09-30T09:20:23.232Z,1011.73
2018-09-30T09:21:23.233Z,1011.70
2018-09-30T09:22:23.268Z,1011.67
2018-09-30T09:23:23.237Z,1011.67
2018-09-30T09:24:23.248Z,1011.68
2018-09-30T09:25:23.246Z,1011.66
2018-09-30T09:26:23.245Z,1011.66
2018-09-30T09:27:23.249Z,1011.69
2018-09-30T09:28:23.246Z,1011.69
2018-09-30T09:29:23.254Z,1011.66
2018-09-30T09:30:23.253Z,1011.66
2018-09-30T09:31:23.257Z,1011.62
2018-09-30T09:32:23.263Z,1011.61
2018-09-30T09:33:23.262Z,1011.57
2018-09-30T09:34:23.267Z,1011.57
2018-09-30T09:35:23.264Z,1011.61
2018-09-30T09:36:23.274Z,1011.54
2018-09-30T09:37:23.276Z,1011.56
2018-09-30T09:38:23.310Z,1011.54
2018-09-30T09:39:23.283Z,1011.57
2018-09-30T09:40:23.287Z,1011.58
2018-09-30T09:41:23.286Z,1011.57
2018-09-30T09:42:23.293Z,1011.57
2018-09-30T09:43:23.295Z,1011.56
2018-09-30T09:44:23.304Z,1011.50
2018-09-30T09:45:23.305Z,1011.52
2018-09-30T09:46:23.307Z,1011.51
2018-09-30T09:47:23.311Z,1011.46
2018-09-30T09:48:23.317Z,1011.48
2018-09-30T09:49:23.319Z,1011.47
2018-09-30T09:50:23.321Z,1011.48
2018-09-30T09:51:23.329Z,1011.48
2018-09-30T09:52:23.353Z,1011.49
2018-09-30T09:53:23.336Z,1011.41
2018-09-30T09:54:23.341Z,1011.44
2018-09-30T09:55:23.346Z,1011.46
2018-09-30T09:56:23.351Z,1011.49
2018-09-30T09:57:23.353Z,1011.47
2018-09-30T09:58:23.356Z,1011.46
2018-09-30T09:59:23.495Z,1011.42
2018-09-30T10:00:23.369Z,1011.37
2018-09-30T10:01:23.377Z,1011.36
2018-09-30T10:02:23.373Z,1011.34
2018-09-30T10:03:23.378Z,1011.31
2018-09-30T10:04:23.394Z,1011.31
2018-09-30T10:05:23.395Z,1011.29
2018-09-30T10:06:23.396Z,1011.27
2018-09-30T10:07:23.401Z,1011.28
2018-09-30T10:08:23.405Z,1011.27
2018-09-30T10:09:23.407Z,1011.27
2018-09-30T10:10:23.413Z,1011.25
2018-09-30T10:11:23.418Z,1011.18
2018-09-30T10:12:23.423Z,1011.17
2018-09-30T10:13:23.506Z,1011.24
2018-09-30T10:14:23.444Z,1011.18
2018-09-30T10:15:23.439Z,1011.18
2018-09-30T10:16:23.440Z,1011.14
2018-09-30T10:17:23.453Z,1011.17
2018-09-30T10:18:23.458Z,1011.09
2018-09-30T10:19:23.466Z,1011.13
2018-09-30T10:20:23.464Z,1011.12
2018-09-30T10:21:23.468Z,1011.13
2018-09-30T10:22:23.472Z,1011.14
2018-09-30T10:23:23.477Z,1011.15
2018-09-30T10:24:23.481Z,1011.13
2018-09-30T10:25:23.490Z,1011.13
2018-09-30T10:26:23.497Z,1011.11
2018-09-30T10:27:23.497Z,1011.14
2018-09-30T10:28:23.501Z,1011.12
2018-09-30T10:29:23.502Z,1011.09
2018-09-30T10:30:23.516Z,1011.11
2018-09-30T10:31:23.513Z,1011.05
2018-09-30T10:32:23.517Z,1011.04
2018-09-30T10:33:23.521Z,1011.00
2018-09-30T10:34:23.527Z,1010.99
2018-09-30T10:35:23.533Z,1011.00
2018-09-30T10:36:23.539Z,1010.99
2018-09-30T10:37:23.554Z,1010.94
2018-09-30T10:38:23.630Z,1010.95
2018-09-30T10:39:23.678Z,1010.97
2018-09-30T10:40:23.563Z,1010.98
2018-09-30T10:41:23.567Z,1010.96
2018-09-30T10:42:23.572Z,1010.90
2018-09-30T10:43:23.578Z,1010.90
2018-09-30T10:44:23.577Z,1010.89
2018-09-30T10:45:23.583Z,1010.91
2018-09-30T10:46:23.597Z,1010.87
2018-09-30T10:47:23.600Z,1010.86
2018-09-30T10:48:23.674Z,1010.81
2018-09-30T10:49:23.606Z,1010.83
2018-09-30T10:50:23.607Z,1010.82
2018-09-30T10:51:23.620Z,1010.78
2018-09-30T10:52:23.624Z,1010.83
2018-09-30T10:53:23.629Z,1010.79
2018-09-30T10:54:23.629Z,1010.76
2018-09-30T10:55:23.748Z,1010.71
2018-09-30T10:56:23.642Z,1010.72
2018-09-30T10:57:23.646Z,1010.71
2018-09-30T10:58:23.653Z,1010.76
2018-09-30T10:59:23.662Z,1010.77
2018-09-30T11:00:23.665Z,1010.76
2018-09-30T11:01:23.672Z,1010.75
2018-09-30T11:02:23.674Z,1010.76
2018-09-30T11:03:23.684Z,1010.78
2018-09-30T11:04:23.681Z,1010.76
2018-09-30T11:05:23.687Z,1010.72
2018-09-30T11:06:23.693Z,1010.73
2018-09-30T11:07:23.698Z,1010.76
2018-09-30T11:08:23.708Z,1010.76
2018-09-30T11:09:23.717Z,1010.75
2018-09-30T11:10:23.716Z,1010.76
2018-09-30T11:11:23.727Z,1010.73
2018-09-30T11:12:23.727Z,1010.67
2018-09-30T11:13:23.737Z,1010.65
2018-09-30T11:14:23.744Z,1010.64
2018-09-30T11:15:23.750Z,1010.62
2018-09-30T11:16:23.754Z,1010.60
2018-09-30T11:17:23.757Z,1010.61
2018-09-30T11:18:23.765Z,1010.54
2018-09-30T11:19:23.766Z,1010.50
2018-09-30T11:20:23.770Z,1010.50
2018-09-30T11:21:23.778Z,1010.47
2018-09-30T11:22:23.832Z,1010.46
2018-09-30T11:23:23.810Z,1010.46
2018-09-30T11:24:23.794Z,1010.45
2018-09-30T11:25:23.797Z,1010.43
2018-09-30T11:26:23.807Z,1010.39
2018-09-30T11:27:23.808Z,1010.37
2018-09-30T11:28:23.815Z,1010.30
2018-09-30T11:29:23.823Z,1010.32
2018-09-30T11:30:23.826Z,1010.29
2018-09-30T11:31:23.833Z,1010.33
2018-09-30T11:32:23.845Z,1010.31
2018-09-30T11:33:23.842Z,1010.24
2018-09-30T11:34:23.848Z,1010.22
2018-09-30T11:35:23.863Z,1010.21
2018-09-30T11:36:23.869Z,1010.19
2018-09-30T11:37:23.871Z,1010.17
2018-09-30T11:38:23.868Z,1010.16
2018-09-30T11:39:23.877Z,1010.14
2018-09-30T11:40:23.878Z,1010.09
2018-09-30T11:41:23.884Z,1010.05
2018-09-30T11:42:23.895Z,1010.02
2018-09-30T11:43:23.897Z,1009.99
2018-09-30T11:44:23.900Z,1010.00
2018-09-30T11:45:23.911Z,1009.97
2018-09-30T11:46:23.915Z,1009.97
2018-09-30T11:47:23.918Z,1009.96
2018-09-30T11:48:23.919Z,1009.94
2018-09-30T11:49:23.924Z,1009.91
2018-09-30T11:50:23.933Z,1009.89
2018-09-30T11:51:23.943Z,1009.88
2018-09-30T11:52:23.945Z,1009.87
2018-09-30T11:53:23.953Z,1009.86
2018-09-30T11:54:23.954Z,1009.84
2018-09-30T11:55:23.957Z,1009.78
2018-09-30T11:56:23.963Z,1009.76
2018-09-30T11:57:23.968Z,1009.71
2018-09-30T11:58:23.978Z,1009.74
2018-09-30T11:59:23.978Z,1009.72
2018-09-30T12:00:23.984Z,1009.69
2018-09-30T12:01:24.047Z,1009.59
2018-09-30T12:02:24.158Z,1009.58
2018-09-30T12:03:24.003Z,1009.59
2018-09-30T12:04:24.023Z,1009.56
2018-09-30T12:05:24.008Z,1009.52